Time;durP1;ratioP1;P1;durP2;ratioP2;P2;SDS_P1;SDS_P2;PMS_P1;PMS_P2;Temp;Humidity;BMP_temperature;BMP_pressure;BME280_temperature;BME280_humidity;BME280_pressure;Samples;Min_cycle;Max_cycle;Signal;HPM_P1;HPM_P2
2024/01/24 00:02:16;;;;;;;3.45;0.40;;;13.50;99.90;;;;;;5050653;28;20083;-77
2024/01/24 00:04:42;;;;;;;2.45;0.35;;;13.60;99.90;;;;;;5056037;28;20115;-76
2024/01/24 00:07:07;;;;;;;3.03;0.40;;;13.60;99.90;;;;;;5057405;28;20083;-77
2024/01/24 00:09:33;;;;;;;3.00;0.65;;;13.60;99.90;;;;;;5046115;28;20025;-76
2024/01/24 00:11:59;;;;;;;2.08;0.30;;;13.60;99.90;;;;;;5045314;28;20064;-75
2024/01/24 00:14:25;;;;;;;2.90;0.40;;;13.60;99.90;;;;;;5045784;28;20481;-76
2024/01/24 00:16:51;;;;;;;2.15;0.35;;;13.60;99.90;;;;;;5035118;28;20042;-76
2024/01/24 00:19:17;;;;;;;3.05;0.50;;;13.70;99.90;;;;;;5037185;28;20072;-77
2024/01/24 00:21:42;;;;;;;2.90;0.25;;;13.70;99.90;;;;;;5031370;28;20037;-77
2024/01/24 00:24:08;;;;;;;3.58;0.22;;;13.80;99.90;;;;;;5045872;28;20025;-76
2024/01/24 00:26:37;;;;;;;4.53;0.30;;;13.80;99.90;;;;;;5040605;28;20072;-76
2024/01/24 00:29:02;;;;;;;1.30;0.20;;;13.80;99.90;;;;;;5050082;28;20038;-76
2024/01/24 00:31:28;;;;;;;2.70;0.30;;;13.80;99.90;;;;;;5042035;28;20526;-77
2024/01/24 00:33:54;;;;;;;3.90;0.20;;;13.80;99.90;;;;;;5050855;28;20024;-77
2024/01/24 00:36:19;;;;;;;2.28;0.20;;;13.90;99.90;;;;;;5039462;28;20393;-77
2024/01/24 00:38:45;;;;;;;1.33;0.20;;;13.90;99.90;;;;;;5042851;28;20397;-77
2024/01/24 00:41:10;;;;;;;1.98;0.10;;;13.80;99.90;;;;;;5040453;28;20022;-76
2024/01/24 00:43:36;;;;;;;1.25;0.20;;;13.80;99.90;;;;;;5055661;28;20505;-77
2024/01/24 00:46:01;;;;;;;2.60;0.30;;;13.80;99.90;;;;;;5042232;28;20089;-77
2024/01/24 00:48:27;;;;;;;1.10;0.28;;;13.80;99.90;;;;;;5052856;28;20025;-77
2024/01/24 00:50:53;;;;;;;1.25;0.10;;;13.70;99.90;;;;;;5054465;28;20400;-77
2024/01/24 00:53:20;;;;;;;2.45;0.20;;;13.70;99.90;;;;;;5054774;28;20104;-77
2024/01/24 00:55:46;;;;;;;0.47;0.10;;;13.70;99.90;;;;;;5036048;28;20419;-77
2024/01/24 00:58:12;;;;;;;2.72;0.20;;;13.60;99.90;;;;;;5045238;28;20074;-77
2024/01/24 01:00:37;;;;;;;0.50;0.10;;;13.60;99.90;;;;;;5043300;28;20029;-76
2024/01/24 01:03:03;;;;;;;1.90;0.20;;;13.60;99.90;;;;;;5040894;28;20024;-76
2024/01/24 01:05:29;;;;;;;1.48;0.20;;;13.60;99.90;;;;;;5053852;28;20337;-76
2024/01/24 01:07:55;;;;;;;1.95;0.20;;;13.50;99.90;;;;;;5034239;28;20084;-76
2024/01/24 01:10:20;;;;;;;1.90;0.20;;;13.40;99.90;;;;;;5035229;28;20022;-76
2024/01/24 01:12:46;;;;;;;3.00;0.20;;;13.40;99.90;;;;;;5049311;28;20022;-76
2024/01/24 01:15:11;;;;;;;0.82;0.20;;;13.40;99.90;;;;;;5042283;28;20044;-76
2024/01/24 01:17:37;;;;;;;1.48;0.17;;;13.30;99.90;;;;;;5060950;28;20062;-76
2024/01/24 01:20:04;;;;;;;1.35;0.22;;;13.30;99.90;;;;;;5062946;28;20036;-76
2024/01/24 01:22:30;;;;;;;2.60;0.73;;;13.20;99.90;;;;;;5058976;28;20025;-76
2024/01/24 01:24:55;;;;;;;0.40;0.10;;;13.20;99.90;;;;;;5034812;28;20484;-77
2024/01/24 01:27:22;;;;;;;1.60;0.20;;;13.20;99.90;;;;;;5038011;28;20071;-76
2024/01/24 01:29:48;;;;;;;0.73;0.10;;;13.20;99.90;;;;;;5047886;28;20091;-76
2024/01/24 01:32:14;;;;;;;1.58;0.20;;;13.20;99.90;;;;;;5043607;28;20030;-76
2024/01/24 01:34:40;;;;;;;0.50;0.20;;;13.20;99.90;;;;;;5047685;28;20107;-76
2024/01/24 01:37:06;;;;;;;0.70;0.20;;;13.20;99.90;;;;;;5044872;28;20044;-76
2024/01/24 01:39:32;;;;;;;0.52;0.20;;;13.10;99.90;;;;;;5051992;28;20017;-76
2024/01/24 01:41:58;;;;;;;0.73;0.20;;;13.10;99.90;;;;;;5054793;28;20400;-75
2024/01/24 01:44:23;;;;;;;1.55;0.30;;;13.10;99.90;;;;;;5046228;28;20047;-76
2024/01/24 01:46:51;;;;;;;0.77;0.25;;;13.00;99.90;;;;;;5045328;28;20025;-76
2024/01/24 01:49:17;;;;;;;2.00;0.25;;;13.00;99.90;;;;;;5043711;28;20026;-76
2024/01/24 01:51:44;;;;;;;2.80;0.35;;;12.90;99.90;;;;;;5046392;28;20124;-77
2024/01/24 01:54:10;;;;;;;1.40;0.40;;;12.80;99.90;;;;;;5043379;28;20067;-75
2024/01/24 01:56:36;;;;;;;0.65;0.30;;;12.70;99.90;;;;;;5037978;28;20017;-76
2024/01/24 01:59:02;;;;;;;3.30;0.40;;;12.60;99.90;;;;;;5064060;28;20044;-76
2024/01/24 02:01:28;;;;;;;2.30;0.38;;;12.60;99.90;;;;;;5051407;28;20027;-76
2024/01/24 02:03:53;;;;;;;2.15;0.40;;;12.50;99.90;;;;;;5046054;28;20439;-76
2024/01/24 02:06:19;;;;;;;1.10;0.30;;;12.40;99.90;;;;;;5042486;28;20419;-76
2024/01/24 02:08:45;;;;;;;1.45;0.38;;;12.40;99.90;;;;;;5052598;28;20500;-76
2024/01/24 02:11:11;;;;;;;1.02;0.20;;;12.40;99.90;;;;;;5046026;28;20033;-76
2024/01/24 02:13:37;;;;;;;0.52;0.30;;;12.30;99.90;;;;;;5051935;28;20025;-76
2024/01/24 02:16:06;;;;;;;0.32;0.30;;;12.30;99.90;;;;;;5040085;28;20780;-75
2024/01/24 02:18:31;;;;;;;0.85;0.30;;;12.30;99.90;;;;;;5049162;28;20159;-75
2024/01/24 02:20:57;;;;;;;1.30;0.30;;;12.30;99.90;;;;;;5051305;28;20099;-76
2024/01/24 02:23:25;;;;;;;0.70;0.22;;;12.30;99.90;;;;;;5059349;28;20082;-77
2024/01/24 02:25:52;;;;;;;0.95;0.30;;;12.20;99.90;;;;;;5044955;28;20029;-75
2024/01/24 02:28:18;;;;;;;0.70;0.30;;;12.20;99.90;;;;;;5060101;28;20056;-76
2024/01/24 02:30:44;;;;;;;0.55;0.30;;;12.20;99.90;;;;;;5050883;28;20031;-76
2024/01/24 02:33:10;;;;;;;0.60;0.30;;;12.20;99.90;;;;;;5039819;28;20029;-75
2024/01/24 02:35:35;;;;;;;0.57;0.30;;;12.20;99.90;;;;;;5042035;28;20037;-76
2024/01/24 02:38:01;;;;;;;1.90;0.30;;;12.20;99.90;;;;;;5045727;28;20047;-77
2024/01/24 02:40:27;;;;;;;1.00;0.30;;;12.20;99.90;;;;;;5042489;28;20022;-76
2024/01/24 02:42:53;;;;;;;0.55;0.30;;;12.20;99.90;;;;;;5050344;28;20105;-77
2024/01/24 02:45:19;;;;;;;1.25;0.30;;;12.20;99.90;;;;;;5054585;28;20080;-77
2024/01/24 02:47:44;;;;;;;0.60;0.30;;;12.20;99.90;;;;;;5051281;28;20028;-77
2024/01/24 02:50:10;;;;;;;0.65;0.30;;;12.20;99.90;;;;;;5044482;28;20084;-77
2024/01/24 02:52:36;;;;;;;1.05;0.40;;;12.20;99.90;;;;;;5039803;28;20056;-75
2024/01/24 02:55:02;;;;;;;0.90;0.40;;;12.20;99.90;;;;;;5039377;28;20025;-77
2024/01/24 02:57:28;;;;;;;0.88;0.45;;;12.20;99.90;;;;;;5046961;28;20440;-76
2024/01/24 02:59:53;;;;;;;1.52;0.40;;;12.20;99.90;;;;;;5043261;28;20025;-77
2024/01/24 03:02:19;;;;;;;1.27;0.50;;;12.30;99.90;;;;;;5050850;28;20047;-77
2024/01/24 03:04:44;;;;;;;0.43;0.20;;;12.30;99.90;;;;;;5039265;28;20100;-75
2024/01/24 03:07:10;;;;;;;0.50;0.28;;;12.30;99.90;;;;;;5057717;28;20026;-75
2024/01/24 03:09:35;;;;;;;1.75;0.30;;;12.40;99.90;;;;;;5038257;28;20117;-74
2024/01/24 03:12:01;;;;;;;0.63;0.20;;;12.40;99.90;;;;;;5040623;28;20036;-74
2024/01/24 03:14:27;;;;;;;0.40;0.20;;;12.60;99.90;;;;;;5042146;28;20051;-75
2024/01/24 03:16:52;;;;;;;2.53;0.30;;;12.60;99.90;;;;;;5051601;28;20123;-75
2024/01/24 03:19:18;;;;;;;1.38;0.20;;;12.70;99.90;;;;;;5041901;28;20025;-75
2024/01/24 03:21:44;;;;;;;1.65;0.20;;;12.80;99.90;;;;;;5049423;28;20045;-75
2024/01/24 03:24:09;;;;;;;0.57;0.10;;;12.80;99.90;;;;;;5042116;28;20040;-76
2024/01/24 03:26:35;;;;;;;2.03;0.20;;;12.90;99.90;;;;;;5050078;28;20013;-75
2024/01/24 03:29:00;;;;;;;2.42;0.20;;;12.90;99.90;;;;;;5047449;28;20031;-75
2024/01/24 03:31:26;;;;;;;2.13;0.30;;;12.80;99.90;;;;;;5046401;28;20030;-74
2024/01/24 03:33:52;;;;;;;4.78;0.40;;;12.50;99.90;;;;;;5042307;28;20037;-74
2024/01/24 03:36:17;;;;;;;2.13;0.38;;;12.30;99.90;;;;;;5042869;28;20492;-74
2024/01/24 03:38:43;;;;;;;2.85;0.30;;;12.20;99.90;;;;;;5038233;28;20132;-73
2024/01/24 03:41:09;;;;;;;2.50;0.70;;;12.00;99.90;;;;;;5033921;28;20101;-74
2024/01/24 03:43:39;;;;;;;2.17;0.45;;;12.00;99.90;;;;;;5047537;28;20064;-74
2024/01/24 03:46:05;;;;;;;1.95;0.40;;;12.00;99.90;;;;;;5045945;28;20469;-76
2024/01/24 03:48:31;;;;;;;5.55;0.50;;;11.90;99.90;;;;;;5041031;28;20104;-75
2024/01/24 03:50:56;;;;;;;7.13;0.63;;;11.90;99.90;;;;;;5048115;28;20023;-75
2024/01/24 03:53:22;;;;;;;3.30;0.50;;;11.90;99.90;;;;;;5048274;28;20036;-74
2024/01/24 03:55:47;;;;;;;6.55;0.75;;;11.90;99.90;;;;;;5036164;28;20041;-74
2024/01/24 03:58:13;;;;;;;8.25;0.80;;;12.00;99.90;;;;;;5039708;28;20044;-74
2024/01/24 04:00:38;;;;;;;4.28;0.50;;;12.00;99.90;;;;;;5046802;28;20021;-74
2024/01/24 04:03:04;;;;;;;7.88;0.60;;;12.00;99.90;;;;;;5039829;28;20116;-74
2024/01/24 04:05:30;;;;;;;8.32;0.65;;;12.00;99.90;;;;;;5052028;28;20028;-74
2024/01/24 04:07:55;;;;;;;10.20;0.88;;;12.00;99.90;;;;;;5059795;28;20191;-74
2024/01/24 04:10:21;;;;;;;10.45;0.93;;;12.00;99.90;;;;;;5048475;28;20021;-74
2024/01/24 04:12:47;;;;;;;11.70;0.90;;;11.90;99.90;;;;;;5045975;28;20025;-74
2024/01/24 04:15:13;;;;;;;7.53;0.70;;;12.00;99.90;;;;;;5052139;28;20033;-75
2024/01/24 04:17:39;;;;;;;10.75;0.80;;;11.90;99.90;;;;;;5038199;28;20047;-73
2024/01/24 04:20:07;;;;;;;14.45;1.48;;;12.00;99.90;;;;;;5035009;28;20130;-76
2024/01/24 04:22:33;;;;;;;11.13;0.75;;;12.00;99.90;;;;;;5032919;28;20035;-74
2024/01/24 04:25:00;;;;;;;7.90;0.55;;;12.00;99.90;;;;;;5046314;28;20036;-74
2024/01/24 04:27:25;;;;;;;14.90;1.02;;;12.00;99.90;;;;;;5054621;28;20033;-74
2024/01/24 04:29:51;;;;;;;16.33;1.42;;;12.00;99.90;;;;;;5051091;28;20043;-74
2024/01/24 04:32:17;;;;;;;11.25;0.88;;;12.00;99.90;;;;;;5056464;28;20463;-73
2024/01/24 04:34:44;;;;;;;14.85;1.98;;;12.10;99.90;;;;;;5045682;28;20052;-75
2024/01/24 04:37:09;;;;;;;15.93;1.45;;;12.00;99.90;;;;;;5037508;28;20386;-74
2024/01/24 04:39:35;;;;;;;15.95;2.05;;;11.90;99.90;;;;;;5049968;28;20028;-75
2024/01/24 04:42:01;;;;;;;12.60;1.10;;;11.90;99.90;;;;;;5047021;28;20021;-76
2024/01/24 04:44:26;;;;;;;17.00;2.30;;;11.90;99.90;;;;;;5040637;28;20049;-75
2024/01/24 04:46:52;;;;;;;19.58;1.70;;;11.90;99.90;;;;;;5039761;28;20048;-75
2024/01/24 04:49:18;;;;;;;14.50;1.67;;;11.90;99.90;;;;;;5041701;28;20514;-74
2024/01/24 04:51:44;;;;;;;22.10;2.28;;;11.90;99.90;;;;;;5037625;28;20056;-75
2024/01/24 04:54:10;;;;;;;18.52;2.85;;;12.00;99.90;;;;;;5037964;28;20025;-74
2024/01/24 04:56:37;;;;;;;21.88;2.63;;;12.00;99.90;;;;;;5046990;28;20124;-74
2024/01/24 04:59:02;;;;;;;16.20;2.00;;;12.00;99.90;;;;;;5047769;28;20037;-74
2024/01/24 05:01:28;;;;;;;15.73;1.85;;;11.90;99.90;;;;;;5047858;28;20041;-75
2024/01/24 05:03:54;;;;;;;19.73;2.13;;;11.90;99.90;;;;;;5045769;28;20116;-74
2024/01/24 05:06:20;;;;;;;21.45;2.85;;;11.90;99.90;;;;;;5042978;28;20017;-75
2024/01/24 05:08:46;;;;;;;18.80;1.67;;;11.90;99.90;;;;;;5046256;28;20110;-74
2024/01/24 05:11:11;;;;;;;24.52;2.80;;;12.00;99.90;;;;;;5055783;28;20518;-76
2024/01/24 05:13:37;;;;;;;23.55;2.83;;;11.90;99.90;;;;;;5045596;28;20047;-74
2024/01/24 05:16:03;;;;;;;27.67;2.42;;;11.90;99.90;;;;;;5036088;28;20022;-75
2024/01/24 05:18:29;;;;;;;26.45;2.45;;;11.90;99.90;;;;;;5044520;28;20040;-74
2024/01/24 05:20:54;;;;;;;20.42;3.40;;;11.80;99.90;;;;;;5053051;28;20036;-74
2024/01/24 05:23:20;;;;;;;23.90;3.58;;;11.80;99.90;;;;;;5045591;28;20036;-76
2024/01/24 05:25:46;;;;;;;19.65;2.50;;;11.80;99.90;;;;;;5057028;28;20107;-74
2024/01/24 05:28:12;;;;;;;22.15;3.40;;;11.80;99.90;;;;;;5061516;28;20058;-74
2024/01/24 05:30:38;;;;;;;20.95;2.63;;;11.70;99.90;;;;;;5040914;28;20088;-75
2024/01/24 05:33:04;;;;;;;29.30;3.08;;;11.70;99.90;;;;;;5051941;28;20028;-74
2024/01/24 05:35:30;;;;;;;24.92;3.20;;;11.70;99.90;;;;;;5061586;28;20025;-74
2024/01/24 05:37:55;;;;;;;31.13;3.00;;;11.70;99.90;;;;;;5057460;28;20045;-75
2024/01/24 05:40:21;;;;;;;27.38;3.20;;;11.70;99.90;;;;;;5040325;28;20053;-75
2024/01/24 05:42:47;;;;;;;27.42;3.17;;;11.70;99.90;;;;;;5051992;28;20029;-74
2024/01/24 05:45:13;;;;;;;29.65;3.08;;;11.70;99.90;;;;;;5049888;28;20087;-74
2024/01/24 05:47:39;;;;;;;22.67;2.75;;;11.70;99.90;;;;;;5054285;28;20021;-74
2024/01/24 05:50:11;;;;;;;31.58;3.55;;;11.70;99.90;;;;;;5037061;28;20029;-74
2024/01/24 05:52:41;;;;;;;25.98;4.40;;;11.60;99.90;;;;;;5039339;28;20021;-75
2024/01/24 05:55:09;;;;;;;23.67;2.92;;;11.60;99.90;;;;;;5042835;28;20104;-75
2024/01/24 05:57:39;;;;;;;28.15;3.92;;;11.60;99.90;;;;;;5061153;28;20026;-74
2024/01/24 06:00:08;;;;;;;26.15;3.17;;;11.60;99.90;;;;;;5036011;28;20029;-74
2024/01/24 06:02:35;;;;;;;23.40;3.55;;;11.60;99.90;;;;;;5049059;28;20393;-74
2024/01/24 06:05:01;;;;;;;28.20;3.33;;;11.60;99.90;;;;;;5062367;28;20028;-74
2024/01/24 06:07:26;;;;;;;26.48;3.25;;;11.60;99.90;;;;;;5042504;28;20030;-74
2024/01/24 06:09:52;;;;;;;32.35;3.72;;;11.60;99.90;;;;;;5039710;28;20034;-75
2024/01/24 06:12:17;;;;;;;37.42;4.95;;;11.50;99.90;;;;;;5058588;28;20106;-74
2024/01/24 06:14:43;;;;;;;22.75;3.75;;;11.50;99.90;;;;;;5047446;28;20017;-74
2024/01/24 06:17:09;;;;;;;31.20;4.63;;;11.50;99.90;;;;;;5049820;28;20067;-75
2024/01/24 06:19:34;;;;;;;28.20;4.07;;;11.50;99.90;;;;;;5039029;28;20017;-76
2024/01/24 06:22:00;;;;;;;29.58;4.90;;;11.50;99.90;;;;;;5042864;28;20489;-75
2024/01/24 06:24:26;;;;;;;29.52;2.83;;;11.60;99.90;;;;;;5044411;28;20431;-74
2024/01/24 06:26:52;;;;;;;33.28;4.07;;;11.50;99.90;;;;;;5045935;28;20374;-76
2024/01/24 06:29:19;;;;;;;34.17;4.75;;;11.50;99.90;;;;;;5041694;28;20086;-76
2024/01/24 06:31:45;;;;;;;30.23;4.53;;;11.50;99.90;;;;;;5062327;28;20051;-76
2024/01/24 06:34:12;;;;;;;35.15;4.32;;;11.50;99.90;;;;;;5048656;28;20079;-76
2024/01/24 06:36:38;;;;;;;31.10;4.00;;;11.40;99.90;;;;;;5038664;28;20036;-74
2024/01/24 06:39:06;;;;;;;34.20;4.30;;;11.40;99.90;;;;;;5038642;28;20383;-74
2024/01/24 06:41:33;;;;;;;23.20;4.32;;;11.30;99.90;;;;;;5057366;28;20030;-75
2024/01/24 06:43:59;;;;;;;28.23;3.55;;;11.30;99.90;;;;;;5033904;28;20029;-75
2024/01/24 06:46:27;;;;;;;34.50;4.47;;;11.20;99.90;;;;;;5041352;28;20397;-75
2024/01/24 06:48:53;;;;;;;28.73;4.85;;;11.10;99.90;;;;;;5045628;28;20032;-75
2024/01/24 06:51:19;;;;;;;39.10;5.07;;;11.10;99.90;;;;;;5046539;28;20388;-75
2024/01/24 06:53:44;;;;;;;29.88;5.15;;;11.00;99.90;;;;;;5054550;28;20104;-75
2024/01/24 06:56:10;;;;;;;51.45;6.45;;;11.00;99.90;;;;;;5056915;28;20021;-75
2024/01/24 06:58:40;;;;;;;40.65;3.88;;;10.90;99.90;;;;;;5053804;28;20037;-74
2024/01/24 07:01:06;;;;;;;35.92;4.63;;;10.90;99.90;;;;;;5047518;28;20029;-74
2024/01/24 07:03:32;;;;;;;28.65;4.97;;;10.90;99.90;;;;;;5035760;28;20051;-74
2024/01/24 07:05:58;;;;;;;34.78;5.80;;;10.80;99.90;;;;;;5043536;28;20096;-76
2024/01/24 07:08:24;;;;;;;42.08;5.38;;;10.80;99.90;;;;;;5050190;28;20632;-76
2024/01/24 07:10:50;;;;;;;34.88;5.10;;;10.70;99.90;;;;;;5043755;28;20022;-76
2024/01/24 07:13:15;;;;;;;39.13;6.07;;;10.60;99.90;;;;;;5033541;28;20167;-76
2024/01/24 07:15:42;;;;;;;34.90;4.85;;;10.60;99.90;;;;;;5039605;28;20021;-75
2024/01/24 07:18:09;;;;;;;40.45;5.53;;;10.60;99.90;;;;;;5040101;28;20029;-76
2024/01/24 07:20:35;;;;;;;35.90;4.75;;;10.60;99.90;;;;;;5037133;28;20031;-76
2024/01/24 07:23:02;;;;;;;37.83;5.25;;;10.60;99.90;;;;;;5039154;28;20112;-74
2024/01/24 07:25:27;;;;;;;36.22;4.47;;;10.60;99.90;;;;;;5035733;28;20508;-76
2024/01/24 07:27:53;;;;;;;31.75;4.20;;;10.60;99.90;;;;;;5049943;28;20075;-75
2024/01/24 07:30:21;;;;;;;31.65;4.88;;;10.50;99.90;;;;;;5040087;28;20026;-75
2024/01/24 07:32:47;;;;;;;37.13;4.82;;;10.50;99.90;;;;;;5050738;28;20090;-77
2024/01/24 07:35:13;;;;;;;43.92;6.35;;;10.40;99.90;;;;;;5047259;28;20033;-75
2024/01/24 07:37:39;;;;;;;40.72;5.93;;;10.40;99.90;;;;;;5045199;28;20454;-75
2024/01/24 07:40:05;;;;;;;33.40;4.63;;;10.40;99.90;;;;;;5030307;28;20029;-75
2024/01/24 07:42:30;;;;;;;37.00;4.45;;;10.40;99.90;;;;;;5039094;28;20036;-76
2024/01/24 07:44:56;;;;;;;36.25;5.30;;;10.30;99.90;;;;;;5041706;28;20409;-75
2024/01/24 07:47:22;;;;;;;43.97;5.57;;;10.30;99.90;;;;;;5041159;28;20033;-76
2024/01/24 07:49:47;;;;;;;34.05;4.05;;;10.30;99.90;;;;;;5044039;28;20032;-76
2024/01/24 07:52:13;;;;;;;35.53;5.80;;;10.30;99.90;;;;;;5040071;28;20044;-75
2024/01/24 07:54:38;;;;;;;35.22;5.00;;;10.30;99.90;;;;;;5039871;28;20048;-75
2024/01/24 07:57:04;;;;;;;36.33;6.15;;;10.30;99.90;;;;;;5049363;28;20031;-76
2024/01/24 07:59:30;;;;;;;34.63;4.82;;;10.30;99.90;;;;;;5044842;28;20051;-75
2024/01/24 08:01:56;;;;;;;37.97;4.60;;;10.20;99.90;;;;;;5038982;28;20025;-75
2024/01/24 08:04:22;;;;;;;40.03;5.63;;;10.20;99.90;;;;;;5056049;28;20041;-75
2024/01/24 08:06:47;;;;;;;30.45;5.05;;;10.20;99.90;;;;;;5040017;28;20037;-75
2024/01/24 08:09:13;;;;;;;40.60;5.07;;;10.20;99.90;;;;;;5035619;28;20522;-75
2024/01/24 08:11:39;;;;;;;42.95;5.88;;;10.20;99.90;;;;;;5038762;28;20022;-75
2024/01/24 08:14:05;;;;;;;39.53;5.60;;;10.20;99.90;;;;;;5042288;28;20086;-76
2024/01/24 08:16:31;;;;;;;38.33;4.40;;;10.20;99.90;;;;;;5037474;28;20060;-75
2024/01/24 08:18:58;;;;;;;40.60;6.07;;;10.20;99.90;;;;;;5036523;28;20119;-75
2024/01/24 08:21:24;;;;;;;43.58;5.75;;;10.20;99.90;;;;;;5041611;28;20029;-76
2024/01/24 08:23:50;;;;;;;41.63;5.25;;;10.20;99.90;;;;;;5038654;28;20430;-76
2024/01/24 08:26:16;;;;;;;36.50;5.13;;;10.20;99.90;;;;;;5040343;28;20021;-75
2024/01/24 08:28:45;;;;;;;34.63;4.93;;;10.20;99.90;;;;;;5043086;28;20483;-75
2024/01/24 08:31:13;;;;;;;47.97;5.68;;;10.20;99.90;;;;;;5036667;28;20025;-75
2024/01/24 08:33:39;;;;;;;28.48;4.00;;;10.20;99.90;;;;;;5039670;28;20123;-75
2024/01/24 08:36:06;;;;;;;37.05;6.78;;;10.20;99.90;;;;;;5053135;28;20020;-76
2024/01/24 08:38:31;;;;;;;47.65;6.00;;;10.20;99.90;;;;;;5042636;28;20037;-76
2024/01/24 08:40:57;;;;;;;37.67;4.53;;;10.20;99.90;;;;;;5037287;28;20571;-75
2024/01/24 08:43:22;;;;;;;33.33;5.70;;;10.20;99.90;;;;;;5051330;28;20025;-77
2024/01/24 08:45:50;;;;;;;41.20;6.05;;;10.20;99.90;;;;;;5044408;28;20095;-75
2024/01/24 08:48:17;;;;;;;40.58;4.68;;;10.20;99.90;;;;;;5041266;28;20028;-75
2024/01/24 08:50:43;;;;;;;35.10;4.55;;;10.20;99.90;;;;;;5042552;28;20388;-76
2024/01/24 08:53:09;;;;;;;36.38;5.03;;;10.30;99.90;;;;;;5047143;28;20096;-76
2024/01/24 08:55:35;;;;;;;31.60;4.35;;;10.30;99.90;;;;;;5039154;28;20037;-76
2024/01/24 08:58:00;;;;;;;39.78;6.40;;;10.30;99.90;;;;;;5036573;28;20025;-76
2024/01/24 09:00:26;;;;;;;39.90;5.95;;;10.30;99.90;;;;;;5039836;28;20020;-75
2024/01/24 09:02:51;;;;;;;33.80;5.47;;;10.30;99.90;;;;;;5036279;28;20494;-76
2024/01/24 09:05:19;;;;;;;27.00;4.40;;;10.30;99.90;;;;;;5037242;28;20025;-76
2024/01/24 09:07:45;;;;;;;30.73;4.55;;;10.30;99.90;;;;;;5039840;28;20076;-76
2024/01/24 09:10:11;;;;;;;37.55;5.07;;;10.30;99.90;;;;;;5038125;28;20021;-75
2024/01/24 09:12:36;;;;;;;36.03;4.55;;;10.30;99.90;;;;;;5040110;28;20465;-76
2024/01/24 09:15:04;;;;;;;32.20;4.43;;;10.30;99.90;;;;;;5049449;28;20055;-75
2024/01/24 09:17:30;;;;;;;35.65;5.03;;;10.40;99.90;;;;;;5049582;28;20037;-75
2024/01/24 09:19:55;;;;;;;33.95;5.35;;;10.40;99.90;;;;;;5043397;28;20033;-75
2024/01/24 09:22:21;;;;;;;37.60;5.32;;;10.40;99.90;;;;;;5041761;28;20030;-76
2024/01/24 09:24:46;;;;;;;39.00;5.22;;;10.40;99.90;;;;;;5041745;28;20430;-75
2024/01/24 09:27:12;;;;;;;40.55;5.63;;;10.50;99.90;;;;;;5040838;28;20017;-74
2024/01/24 09:29:38;;;;;;;40.40;6.07;;;10.50;99.90;;;;;;5028464;28;20040;-76
2024/01/24 09:32:04;;;;;;;39.30;5.43;;;10.50;99.90;;;;;;5029781;28;20079;-75
2024/01/24 09:34:29;;;;;;;31.20;5.50;;;10.50;99.90;;;;;;5038834;28;20059;-75
2024/01/24 09:36:55;;;;;;;41.40;5.72;;;10.60;99.90;;;;;;5031213;28;20434;-74
2024/01/24 09:39:22;;;;;;;35.53;4.95;;;10.60;99.90;;;;;;5024585;28;20064;-74
2024/01/24 09:41:51;;;;;;;28.50;4.90;;;10.60;99.90;;;;;;5033542;28;20533;-75
2024/01/24 09:44:17;;;;;;;38.42;5.55;;;10.50;99.90;;;;;;5033098;28;20056;-75
2024/01/24 09:46:43;;;;;;;35.13;5.03;;;10.60;99.90;;;;;;5052986;28;20028;-74
2024/01/24 09:49:10;;;;;;;42.70;5.45;;;10.60;99.90;;;;;;5043191;28;20053;-74
2024/01/24 09:51:37;;;;;;;39.83;5.50;;;10.60;99.90;;;;;;5053378;28;20027;-75
2024/01/24 09:54:07;;;;;;;40.90;5.82;;;10.60;99.90;;;;;;5060415;28;20029;-75
2024/01/24 09:56:36;;;;;;;46.70;5.55;;;10.60;99.90;;;;;;5073247;28;20059;-74
2024/01/24 09:59:04;;;;;;;39.08;5.70;;;10.70;99.90;;;;;;5059471;28;20036;-75
2024/01/24 10:01:31;;;;;;;34.47;5.93;;;10.80;99.90;;;;;;5049393;28;20107;-75
2024/01/24 10:03:59;;;;;;;38.83;5.68;;;10.80;99.90;;;;;;5058147;28;20029;-74
2024/01/24 10:06:26;;;;;;;41.30;5.78;;;10.80;99.90;;;;;;5038690;28;20030;-74
2024/01/24 10:08:52;;;;;;;41.75;5.35;;;10.90;99.90;;;;;;5041026;28;20078;-74
2024/01/24 10:11:18;;;;;;;42.85;5.93;;;10.90;99.90;;;;;;5048738;28;20024;-75
2024/01/24 10:13:43;;;;;;;32.28;4.20;;;11.00;99.90;;;;;;5041614;28;20044;-75
2024/01/24 10:16:09;;;;;;;47.22;6.15;;;11.00;99.90;;;;;;5039772;28;20021;-74
2024/01/24 10:18:35;;;;;;;32.47;4.10;;;11.00;99.90;;;;;;5037318;28;20037;-74
2024/01/24 10:21:03;;;;;;;38.63;6.57;;;11.10;99.90;;;;;;5033900;28;20505;-75
2024/01/24 10:23:33;;;;;;;35.03;5.20;;;11.10;99.90;;;;;;5047677;28;20056;-74
2024/01/24 10:25:59;;;;;;;36.20;4.60;;;11.10;99.90;;;;;;5048249;28;20440;-74
2024/01/24 10:28:25;;;;;;;32.83;4.75;;;11.20;99.90;;;;;;5041989;28;20037;-76
2024/01/24 10:30:51;;;;;;;32.13;4.97;;;11.20;99.90;;;;;;5048246;28;20032;-74
2024/01/24 10:33:17;;;;;;;39.03;5.30;;;11.20;99.90;;;;;;5042929;28;20033;-75
2024/01/24 10:35:43;;;;;;;35.72;5.05;;;11.20;99.90;;;;;;5051425;28;20416;-74
2024/01/24 10:38:12;;;;;;;31.75;4.13;;;11.20;99.90;;;;;;5055063;28;20070;-74
2024/01/24 10:40:41;;;;;;;33.80;4.15;;;11.20;99.90;;;;;;5040438;28;20099;-74
2024/01/24 10:43:12;;;;;;;32.85;4.82;;;11.20;99.90;;;;;;5043951;28;20041;-74
2024/01/24 10:45:43;;;;;;;35.72;5.35;;;11.20;99.90;;;;;;5047141;28;20056;-75
2024/01/24 10:48:11;;;;;;;34.88;5.25;;;11.20;99.90;;;;;;5060308;28;20013;-74
2024/01/24 10:50:37;;;;;;;38.53;4.72;;;11.10;99.90;;;;;;5039408;28;20041;-74
2024/01/24 10:53:04;;;;;;;32.13;4.78;;;11.10;99.90;;;;;;5058297;28;20070;-76
2024/01/24 10:55:31;;;;;;;29.35;4.20;;;11.00;99.90;;;;;;5051458;28;20039;-75
2024/01/24 10:57:57;;;;;;;26.95;3.20;;;11.10;99.90;;;;;;5049514;28;20064;-74
2024/01/24 11:00:28;;;;;;;29.35;4.70;;;11.10;99.90;;;;;;5048056;28;20166;-74
2024/01/24 11:02:54;;;;;;;39.90;4.07;;;11.00;99.90;;;;;;5045127;28;20099;-74
2024/01/24 11:05:26;;;;;;;42.75;4.50;;;11.10;99.90;;;;;;5038313;28;20389;-75
2024/01/24 11:08:02;;;;;;;33.70;4.10;;;11.10;99.90;;;;;;5051773;28;20024;-74
2024/01/24 11:10:42;;;;;;;43.45;5.63;;;11.10;99.90;;;;;;5052740;28;20028;-75
2024/01/24 11:13:10;;;;;;;37.72;6.28;;;11.10;99.90;;;;;;5047774;28;20029;-75
2024/01/24 11:15:36;;;;;;;27.48;4.35;;;11.10;99.90;;;;;;5047756;28;20183;-75
2024/01/24 11:18:22;;;;;;;35.92;5.30;;;11.00;99.90;;;;;;5039958;28;20571;-77
2024/01/24 11:20:52;;;;;;;31.70;3.80;;;11.10;99.90;;;;;;5041374;28;20036;-75
2024/01/24 11:23:45;;;;;;;25.55;3.65;;;11.00;99.90;;;;;;5038798;28;20044;-75
2024/01/24 11:26:31;;;;;;;30.33;3.78;;;11.00;99.90;;;;;;5049455;28;20037;-74
2024/01/24 11:29:11;;;;;;;32.70;3.88;;;11.00;99.90;;;;;;5043899;28;20041;-73
2024/01/24 11:31:41;;;;;;;41.70;5.15;;;11.00;99.90;;;;;;5049582;28;20025;-72
2024/01/24 11:34:14;;;;;;;33.55;4.22;;;11.00;99.90;;;;;;5033793;28;20032;-73
2024/01/24 11:36:51;;;;;;;37.28;4.93;;;10.90;99.90;;;;;;5031601;28;20108;-74
2024/01/24 11:39:30;;;;;;;25.10;4.15;;;10.90;99.90;;;;;;5042240;28;20118;-75
2024/01/24 11:42:47;;;;;;;27.80;4.07;;;11.00;99.90;;;;;;5042140;28;20022;-75
2024/01/24 11:45:17;;;;;;;33.95;4.93;;;10.90;99.90;;;;;;5037763;28;20048;-75
2024/01/24 11:47:43;;;;;;;37.95;5.25;;;10.90;99.90;;;;;;5045916;28;20031;-74
2024/01/24 11:50:11;;;;;;;36.35;4.22;;;10.90;99.90;;;;;;5050912;28;20036;-75
2024/01/24 11:52:36;;;;;;;36.50;4.43;;;10.90;99.90;;;;;;5044034;28;20567;-75
2024/01/24 11:55:02;;;;;;;32.38;4.13;;;11.00;99.90;;;;;;5056373;28;20108;-76
2024/01/24 11:57:29;;;;;;;28.17;3.67;;;11.00;99.90;;;;;;5042488;28;20112;-75
2024/01/24 11:59:55;;;;;;;33.72;4.25;;;11.00;99.90;;;;;;5047804;28;20033;-75
2024/01/24 12:02:22;;;;;;;30.65;5.10;;;11.10;99.90;;;;;;5054401;28;20085;-75
2024/01/24 12:04:56;;;;;;;33.22;4.55;;;11.10;99.90;;;;;;5046991;28;20384;-76
2024/01/24 12:07:22;;;;;;;31.67;4.35;;;11.10;99.90;;;;;;5048928;28;20388;-76
2024/01/24 12:09:48;;;;;;;28.15;4.72;;;11.20;99.90;;;;;;5032068;28;20029;-76
2024/01/24 12:12:14;;;;;;;34.80;4.53;;;11.20;99.90;;;;;;5040132;28;20441;-75
2024/01/24 12:14:40;;;;;;;29.77;4.35;;;11.20;99.90;;;;;;5050259;28;20067;-76
2024/01/24 12:17:12;;;;;;;39.33;4.10;;;11.20;99.90;;;;;;5048604;28;20021;-74
2024/01/24 12:19:43;;;;;;;24.08;3.65;;;11.20;99.90;;;;;;5051369;28;20037;-75
2024/01/24 12:22:09;;;;;;;22.95;3.50;;;11.30;99.90;;;;;;5042195;28;20031;-74
2024/01/24 12:24:42;;;;;;;34.42;4.43;;;11.30;99.90;;;;;;5050674;28;20064;-73
2024/01/24 12:27:08;;;;;;;32.60;4.15;;;11.30;99.90;;;;;;5062784;28;20024;-74
2024/01/24 12:29:34;;;;;;;24.88;3.72;;;11.30;99.90;;;;;;5064457;28;20541;-74
2024/01/24 12:32:05;;;;;;;31.58;4.22;;;11.30;99.90;;;;;;5049872;28;20037;-74
2024/01/24 12:34:31;;;;;;;30.17;3.25;;;11.20;99.90;;;;;;5056854;28;20505;-73
2024/01/24 12:37:00;;;;;;;27.75;3.63;;;11.20;99.90;;;;;;5049413;28;20095;-73
2024/01/24 12:39:32;;;;;;;23.83;3.38;;;11.20;99.90;;;;;;5049802;28;20029;-74